Snow/Ice From: 17-12-2017 10:00 Until: 18-12-2017 06:00 warning for: Snow/Ice Level: Yellow info button

Although rather usual in this region, locally or potentially dangerous phenomena are expected. (such as local winds, summer thunderstorms, rising streams or high waves) Be aware and pay attention to the latest weather updates, especially if you carry out activities exposed to weather or close to a stream or shoreline. 


Meteo18 Weather Cam more information Meteo18 Weather Cam


Thunder radar more information blitzortung!


warning for Snow/Ice more information rain snow radar


Visit our other weather sites:

Template documentation
and downloads

And another site



Weather Underground History page Text

Daily Summary for March 31, 2017 Units:  Both    English   Metric
« Previous Day
Next Day »
Daily Weekly Monthly Yearly Custom
  High: Low: Average:
Temperature: 62.4 °F /  16.9 °C 48.2 °F /  9.0 °C 55 °F /  12.8 °C
Dew Point: 52.3 °F /  11.3 °C 37.6 °F /  3.1 °C 46.4 °F /  8 °C
Humidity: 95 % 48 % 74 %
Wind Speed: 16 mph /  25.7 km/h - 2.7 mph /  4.3 km/h
Wind Gust: 22 mph /  35.4 km/h - -
Wind:- - SW
Pressure: 30.1 in /  1018.8 hPa 30 in /  1015.5 hPa -
Precipitation: 0.16 in /  4.1 mm    
Historical Graphs
 
 
Tabular Data for March 31, 2017
Time Temperature Dew Point Pressure Wind Wind Speed Wind Gust Humidity Rainfall Rate (Hourly)
00:02 57 °F /  13.9 °C 46.6 °F /  8.1 °C 30.1 in /  1018.8 hPa Calm     68 % 0 in /  0.0 mm
00:07 56.8 °F /  13.8 °C 46.4 °F /  8.0 °C 30.1 in /  1018.8 hPa Calm     68 % 0 in /  0.0 mm
00:12 56.5 °F /  13.6 °C 46.4 °F /  8.0 °C 30.1 in /  1018.8 hPa Calm     69 % 0 in /  0.0 mm
00:17 56.5 °F /  13.6 °C 46.4 °F /  8.0 °C 30.1 in /  1018.8 hPa Calm     69 % 0 in /  0.0 mm
00:22 56.3 °F /  13.5 °C 46.6 °F /  8.1 °C 30.1 in /  1018.8 hPa Calm     70 % 0 in /  0.0 mm
00:32 56.7 °F /  13.7 °C 46.9 °F /  8.3 °C 30.1 in /  1018.8 hPa Calm     70 % 0 in /  0.0 mm
00:37 57.6 °F /  14.2 °C 47.1 °F /  8.4 °C 30.1 in /  1018.8 hPa Calm     68 % 0 in /  0.0 mm
00:42 57.7 °F /  14.3 °C 46.9 °F /  8.3 °C 30.1 in /  1018.8 hPa Calm     67 % 0 in /  0.0 mm
00:52 57.6 °F /  14.2 °C 46.8 °F /  8.2 °C 30.1 in /  1018.8 hPa Calm     67 % 0 in /  0.0 mm
00:57 57 °F /  13.9 °C 46.6 °F /  8.1 °C 30.1 in /  1018.8 hPa Calm     68 % 0 in /  0.0 mm
01:02 56.5 °F /  13.6 °C 46.4 °F /  8.0 °C 30.1 in /  1018.8 hPa Calm     69 % 0 in /  0.0 mm
01:12 55.8 °F /  13.2 °C 46 °F /  7.8 °C 30.1 in /  1018.8 hPa Calm     70 % 0 in /  0.0 mm
01:17 55 °F /  12.8 °C 45.9 °F /  7.7 °C 30.1 in /  1018.8 hPa Calm     71 % 0 in /  0.0 mm
01:22 54.7 °F /  12.6 °C 45.9 °F /  7.7 °C 30.1 in /  1018.8 hPa Calm     72 % 0 in /  0.0 mm
01:27 54.3 °F /  12.4 °C 45.9 °F /  7.7 °C 30.1 in /  1018.8 hPa Calm     73 % 0 in /  0.0 mm
01:32 54.3 °F /  12.4 °C 46.2 °F /  7.9 °C 30.1 in /  1018.8 hPa Calm     74 % 0 in /  0.0 mm
01:42 54.7 °F /  12.6 °C 46.6 °F /  8.1 °C 30.1 in /  1018.5 hPa West 1 mph /  1.6 km/h   74 % 0 in /  0.0 mm
01:47 55.2 °F /  12.9 °C 47.5 °F /  8.6 °C 30.1 in /  1018.5 hPa Calm   2 mph /  3.2 km/h 75 % 0 in /  0.0 mm
01:52 55.9 °F /  13.3 °C 47.5 °F /  8.6 °C 30.1 in /  1018.5 hPa WSW 1 mph /  1.6 km/h 2 mph /  3.2 km/h 73 % 0 in /  0.0 mm
02:02 56.5 °F /  13.6 °C 47.5 °F /  8.6 °C 30.1 in /  1018.5 hPa Calm   2 mph /  3.2 km/h 72 % 0 in /  0.0 mm
02:12 55.9 °F /  13.3 °C 47.1 °F /  8.4 °C 30.1 in /  1018.5 hPa Calm   1 mph /  1.6 km/h 72 % 0 in /  0.0 mm
02:17 55.4 °F /  13.0 °C 46.6 °F /  8.1 °C 30.1 in /  1018.8 hPa Calm   1 mph /  1.6 km/h 72 % 0 in /  0.0 mm
02:22 54.5 °F /  12.5 °C 46.4 °F /  8.0 °C 30.1 in /  1018.8 hPa Calm   1 mph /  1.6 km/h 74 % 0 in /  0.0 mm
02:32 54.7 °F /  12.6 °C 46.9 °F /  8.3 °C 30.1 in /  1018.5 hPa ENE 1 mph /  1.6 km/h 2 mph /  3.2 km/h 75 % 0 in /  0.0 mm
02:42 54.5 °F /  12.5 °C 46.4 °F /  8.0 °C 30.1 in /  1018.5 hPa Calm   2 mph /  3.2 km/h 74 % 0 in /  0.0 mm
02:47 54.7 °F /  12.6 °C 46.2 °F /  7.9 °C 30.1 in /  1018.5 hPa Calm   1 mph /  1.6 km/h 73 % 0 in /  0.0 mm
02:52 54.7 °F /  12.6 °C 46.2 °F /  7.9 °C 30.1 in /  1018.5 hPa North 2 mph /  3.2 km/h 2 mph /  3.2 km/h 73 % 0 in /  0.0 mm
02:57 54 °F /  12.2 °C 46.2 °F /  7.9 °C 30.1 in /  1018.5 hPa Calm   2 mph /  3.2 km/h 75 % 0 in /  0.0 mm
03:07 54.3 °F /  12.4 °C 45.5 °F /  7.5 °C 30.1 in /  1018.5 hPa Calm   2 mph /  3.2 km/h 72 % 0 in /  0.0 mm
03:12 54.1 °F /  12.3 °C 46 °F /  7.8 °C 30.1 in /  1018.2 hPa Calm   2 mph /  3.2 km/h 74 % 0 in /  0.0 mm
03:17 53.6 °F /  12.0 °C 45.5 °F /  7.5 °C 30.1 in /  1018.2 hPa Calm   1 mph /  1.6 km/h 74 % 0 in /  0.0 mm
03:22 53.2 °F /  11.8 °C 45.1 °F /  7.3 °C 30.1 in /  1018.5 hPa Calm   1 mph /  1.6 km/h 74 % 0 in /  0.0 mm
03:32 52.5 °F /  11.4 °C 45.1 °F /  7.3 °C 30.1 in /  1018.2 hPa Calm     76 % 0 in /  0.0 mm
03:42 52 °F /  11.1 °C 45.3 °F /  7.4 °C 30.1 in /  1018.2 hPa Calm     78 % 0 in /  0.0 mm
03:47 51.8 °F /  11.0 °C 45.1 °F /  7.3 °C 30.1 in /  1017.8 hPa Calm     78 % 0 in /  0.0 mm
03:52 52.3 °F /  11.3 °C 44.6 °F /  7.0 °C 30.1 in /  1018.2 hPa Calm   1 mph /  1.6 km/h 75 % 0 in /  0.0 mm
03:57 52.3 °F /  11.3 °C 44.2 °F /  6.8 °C 30.1 in /  1017.8 hPa Calm   1 mph /  1.6 km/h 74 % 0 in /  0.0 mm
04:02 52 °F /  11.1 °C 44.2 °F /  6.8 °C 30.1 in /  1017.8 hPa Calm   1 mph /  1.6 km/h 75 % 0 in /  0.0 mm
04:12 51.3 °F /  10.7 °C 44.2 °F /  6.8 °C 30.1 in /  1017.8 hPa Calm   1 mph /  1.6 km/h 77 % 0 in /  0.0 mm
04:17 51.1 °F /  10.6 °C 44.1 °F /  6.7 °C 30.1 in /  1017.8 hPa Calm     77 % 0 in /  0.0 mm
04:22 50.9 °F /  10.5 °C 43.9 °F /  6.6 °C 30.1 in /  1017.8 hPa Calm     77 % 0 in /  0.0 mm
04:27 50.9 °F /  10.5 °C 43.9 °F /  6.6 °C 30.1 in /  1017.8 hPa NE 1 mph /  1.6 km/h   77 % 0 in /  0.0 mm
04:32 50.7 °F /  10.4 °C 43.7 °F /  6.5 °C 30.1 in /  1017.5 hPa Calm     77 % 0 in /  0.0 mm
04:42 50.4 °F /  10.2 °C 44.1 °F /  6.7 °C 30.1 in /  1017.5 hPa Calm   1 mph /  1.6 km/h 79 % 0 in /  0.0 mm
04:47 50.4 °F /  10.2 °C 44.1 °F /  6.7 °C 30.1 in /  1017.5 hPa Calm   1 mph /  1.6 km/h 79 % 0 in /  0.0 mm
04:52 50.5 °F /  10.3 °C 43.9 °F /  6.6 °C 30.1 in /  1017.5 hPa Calm   1 mph /  1.6 km/h 78 % 0 in /  0.0 mm
04:57 50.7 °F /  10.4 °C 44.1 °F /  6.7 °C 30.1 in /  1017.5 hPa Calm   1 mph /  1.6 km/h 78 % 0 in /  0.0 mm
05:02 50.4 °F /  10.2 °C 43.2 °F /  6.2 °C 30.1 in /  1017.5 hPa Calm     76 % 0 in /  0.0 mm
05:12 50.2 °F /  10.1 °C 43.5 °F /  6.4 °C 30.1 in /  1017.5 hPa Calm     78 % 0 in /  0.0 mm
05:22 50.2 °F /  10.1 °C 41.9 °F /  5.5 °C 30 in /  1017.2 hPa Calm     73 % 0 in /  0.0 mm
05:32 49.3 °F /  9.6 °C 42.1 °F /  5.6 °C 30 in /  1017.2 hPa Calm     76 % 0 in /  0.0 mm
05:37 49.3 °F /  9.6 °C 41.7 °F /  5.4 °C 30 in /  1017.2 hPa Calm     75 % 0 in /  0.0 mm
05:42 49.6 °F /  9.8 °C 41.7 °F /  5.4 °C 30 in /  1017.2 hPa Calm     74 % 0 in /  0.0 mm
05:52 49.6 °F /  9.8 °C 42.1 °F /  5.6 °C 30 in /  1017.2 hPa Calm     75 % 0 in /  0.0 mm
06:02 48.7 °F /  9.3 °C 41.2 °F /  5.1 °C 30 in /  1017.2 hPa Calm     75 % 0 in /  0.0 mm
06:12 48.9 °F /  9.4 °C 40.3 °F /  4.6 °C 30 in /  1017.2 hPa Calm     72 % 0 in /  0.0 mm
06:17 48.9 °F /  9.4 °C 39.9 °F /  4.4 °C 30 in /  1017.2 hPa Calm     71 % 0 in /  0.0 mm
06:22 49.1 °F /  9.5 °C 39.7 °F /  4.3 °C 30 in /  1017.2 hPa Calm     70 % 0 in /  0.0 mm
06:32 48.7 °F /  9.3 °C 39.4 °F /  4.1 °C 30 in /  1017.2 hPa Calm     70 % 0 in /  0.0 mm
06:37 48.6 °F /  9.2 °C 38.8 °F /  3.8 °C 30 in /  1016.8 hPa Calm     69 % 0 in /  0.0 mm
06:42 48.6 °F /  9.2 °C 38.5 °F /  3.6 °C 30 in /  1017.2 hPa Calm     68 % 0 in /  0.0 mm
06:47 48.9 °F /  9.4 °C 38.8 °F /  3.8 °C 30 in /  1017.2 hPa Calm     68 % 0 in /  0.0 mm
06:52 48.9 °F /  9.4 °C 38.5 °F /  3.6 °C 30 in /  1017.2 hPa Calm     67 % 0 in /  0.0 mm
07:02 49.6 °F /  9.8 °C 37.6 °F /  3.1 °C 30 in /  1017.2 hPa Calm     63 % 0 in /  0.0 mm
07:07 49.3 °F /  9.6 °C 37.9 °F /  3.3 °C 30 in /  1017.2 hPa Calm     65 % 0 in /  0.0 mm
07:12 49.3 °F /  9.6 °C 37.9 °F /  3.3 °C 30 in /  1017.2 hPa Calm     65 % 0 in /  0.0 mm
07:17 49.5 °F /  9.7 °C 37.8 °F /  3.2 °C 30 in /  1017.2 hPa Calm     64 % 0 in /  0.0 mm
07:22 49.3 °F /  9.6 °C 37.6 °F /  3.1 °C 30 in /  1017.2 hPa Calm     64 % 0 in /  0.0 mm
07:27 48.9 °F /  9.4 °C 37.8 °F /  3.2 °C 30 in /  1017.2 hPa Calm     65 % 0 in /  0.0 mm
07:32 48.7 °F /  9.3 °C 37.6 °F /  3.1 °C 30 in /  1017.2 hPa Calm     65 % 0 in /  0.0 mm
07:42 48.4 °F /  9.1 °C 37.9 °F /  3.3 °C 30.1 in /  1017.5 hPa NW 2 mph /  3.2 km/h   67 % 0 in /  0.0 mm
07:47 48.7 °F /  9.3 °C 37.6 °F /  3.1 °C 30 in /  1017.2 hPa NW 1 mph /  1.6 km/h   65 % 0 in /  0.0 mm
07:57 49.3 °F /  9.6 °C 37.6 °F /  3.1 °C 30 in /  1017.2 hPa Calm   2 mph /  3.2 km/h 64 % 0 in /  0.0 mm
08:02 48.7 °F /  9.3 °C 37.6 °F /  3.1 °C 30.1 in /  1017.5 hPa Calm   1 mph /  1.6 km/h 65 % 0 in /  0.0 mm
08:12 48.4 °F /  9.1 °C 37.9 °F /  3.3 °C 30.1 in /  1017.5 hPa Calm   1 mph /  1.6 km/h 67 % 0 in /  0.0 mm
08:17 48.2 °F /  9.0 °C 38.1 °F /  3.4 °C 30.1 in /  1017.5 hPa South 1 mph /  1.6 km/h 1 mph /  1.6 km/h 68 % 0 in /  0.0 mm
08:22 48.4 °F /  9.1 °C 38.3 °F /  3.5 °C 30.1 in /  1017.5 hPa South 1 mph /  1.6 km/h 2 mph /  3.2 km/h 68 % 0 in /  0.0 mm
08:32 48.9 °F /  9.4 °C 38.1 °F /  3.4 °C 30.1 in /  1017.5 hPa Calm   2 mph /  3.2 km/h 66 % 0 in /  0.0 mm
08:37 48.9 °F /  9.4 °C 38.1 °F /  3.4 °C 30.1 in /  1017.5 hPa Calm   2 mph /  3.2 km/h 66 % 0 in /  0.0 mm
08:42 49.3 °F /  9.6 °C 38.8 °F /  3.8 °C 30.1 in /  1017.5 hPa Calm   1 mph /  1.6 km/h 67 % 0 in /  0.0 mm
08:47 49.3 °F /  9.6 °C 38.8 °F /  3.8 °C 30.1 in /  1017.8 hPa Calm   1 mph /  1.6 km/h 67 % 0 in /  0.0 mm
08:52 49.5 °F /  9.7 °C 39 °F /  3.9 °C 30.1 in /  1017.8 hPa Calm   2 mph /  3.2 km/h 67 % 0 in /  0.0 mm
09:02 49.8 °F /  9.9 °C 40.1 °F /  4.5 °C 30.1 in /  1017.8 hPa Calm   2 mph /  3.2 km/h 69 % 0 in /  0.0 mm
09:12 50.7 °F /  10.4 °C 40.5 °F /  4.7 °C 30.1 in /  1017.8 hPa Calm   3 mph /  4.8 km/h 68 % 0 in /  0.0 mm
09:17 51.1 °F /  10.6 °C 40.8 °F /  4.9 °C 30.1 in /  1017.8 hPa South 1 mph /  1.6 km/h 3 mph /  4.8 km/h 68 % 0 in /  0.0 mm
09:22 51.3 °F /  10.7 °C 41 °F /  5.0 °C 30.1 in /  1017.8 hPa Calm   3 mph /  4.8 km/h 68 % 0 in /  0.0 mm
09:32 52.2 °F /  11.2 °C 41.5 °F /  5.3 °C 30.1 in /  1017.8 hPa South 2 mph /  3.2 km/h 3 mph /  4.8 km/h 67 % 0 in /  0.0 mm
09:37 52.5 °F /  11.4 °C 41.5 °F /  5.3 °C 30.1 in /  1017.8 hPa SSW 3 mph /  4.8 km/h 3 mph /  4.8 km/h 66 % 0 in /  0.0 mm
09:42 53.1 °F /  11.7 °C 42.1 °F /  5.6 °C 30.1 in /  1017.8 hPa SSW 2 mph /  3.2 km/h 5 mph /  8.0 km/h 66 % 0 in /  0.0 mm
09:52 54.1 °F /  12.3 °C 41.9 °F /  5.5 °C 30.1 in /  1017.8 hPa South 3 mph /  4.8 km/h 6 mph /  9.7 km/h 63 % 0 in /  0.0 mm
10:02 55 °F /  12.8 °C 42.3 °F /  5.7 °C 30.1 in /  1018.2 hPa South 4 mph /  6.4 km/h 7 mph /  11.3 km/h 62 % 0 in /  0.0 mm
10:12 55.6 °F /  13.1 °C 42.8 °F /  6.0 °C 30.1 in /  1018.2 hPa SSW 1 mph /  1.6 km/h 7 mph /  11.3 km/h 62 % 0 in /  0.0 mm
10:22 56.5 °F /  13.6 °C 42.3 °F /  5.7 °C 30.1 in /  1018.2 hPa SSW 2 mph /  3.2 km/h 7 mph /  11.3 km/h 59 % 0 in /  0.0 mm
10:32 57.4 °F /  14.1 °C 43.7 °F /  6.5 °C 30.1 in /  1018.5 hPa SE 3 mph /  4.8 km/h 7 mph /  11.3 km/h 60 % 0 in /  0.0 mm
10:42 58.3 °F /  14.6 °C 43.5 °F /  6.4 °C 30.1 in /  1018.5 hPa SE 4 mph /  6.4 km/h 6 mph /  9.7 km/h 58 % 0 in /  0.0 mm
10:47 58.6 °F /  14.8 °C 43.9 °F /  6.6 °C 30.1 in /  1018.5 hPa SW 6 mph /  9.7 km/h 6 mph /  9.7 km/h 58 % 0 in /  0.0 mm
10:52 59 °F /  15.0 °C 44.8 °F /  7.1 °C 30.1 in /  1018.5 hPa SE 3 mph /  4.8 km/h 8 mph /  12.9 km/h 59 % 0 in /  0.0 mm
10:57 59.9 °F /  15.5 °C 44.2 °F /  6.8 °C 30.1 in /  1018.5 hPa SSW 5 mph /  8.0 km/h 8 mph /  12.9 km/h 56 % 0 in /  0.0 mm
11:02 60.4 °F /  15.8 °C 43.2 °F /  6.2 °C 30.1 in /  1018.5 hPa SSW 7 mph /  11.3 km/h 7 mph /  11.3 km/h 53 % 0 in /  0.0 mm
11:07 61.2 °F /  16.2 °C 43 °F /  6.1 °C 30.1 in /  1018.5 hPa SW 8 mph /  12.9 km/h 8 mph /  12.9 km/h 51 % 0 in /  0.0 mm
11:12 62.1 °F /  16.7 °C 43.2 °F /  6.2 °C 30.1 in /  1018.5 hPa WSW 12 mph /  19.3 km/h 17 mph /  27.4 km/h 50 % 0 in /  0.0 mm
11:17 62.4 °F /  16.9 °C 42.4 °F /  5.8 °C 30.1 in /  1018.5 hPa WSW 5 mph /  8.0 km/h 17 mph /  27.4 km/h 48 % 0 in /  0.0 mm
11:22 62.1 °F /  16.7 °C 42.1 °F /  5.6 °C 30.1 in /  1018.8 hPa WSW 7 mph /  11.3 km/h 17 mph /  27.4 km/h 48 % 0 in /  0.0 mm
11:27 61.7 °F /  16.5 °C 43.3 °F /  6.3 °C 30.1 in /  1018.8 hPa SW 13 mph /  20.9 km/h 17 mph /  27.4 km/h 51 % 0 in /  0.0 mm
11:37 61.3 °F /  16.3 °C 43.5 °F /  6.4 °C 30.1 in /  1018.8 hPa SW 10 mph /  16.1 km/h 17 mph /  27.4 km/h 52 % 0 in /  0.0 mm
11:42 61.2 °F /  16.2 °C 43.3 °F /  6.3 °C 30.1 in /  1018.8 hPa SW 16 mph /  25.7 km/h 19 mph /  30.6 km/h 52 % 0 in /  0.0 mm
11:47 60.8 °F /  16.0 °C 44.1 °F /  6.7 °C 30.1 in /  1018.8 hPa SW 12 mph /  19.3 km/h 19 mph /  30.6 km/h 54 % 0 in /  0.0 mm
11:52 60.4 °F /  15.8 °C 43.7 °F /  6.5 °C 30.1 in /  1018.8 hPa WSW 7 mph /  11.3 km/h 19 mph /  30.6 km/h 54 % 0 in /  0.0 mm
12:02 60.6 °F /  15.9 °C 44.4 °F /  6.9 °C 30.1 in /  1018.8 hPa WSW 7 mph /  11.3 km/h 16 mph /  25.7 km/h 55 % 0 in /  0.0 mm
12:12 61.3 °F /  16.3 °C 45 °F /  7.2 °C 30.1 in /  1018.8 hPa SW 11 mph /  17.7 km/h 17 mph /  27.4 km/h 55 % 0 in /  0.0 mm
12:17 61.5 °F /  16.4 °C 45.7 °F /  7.6 °C 30.1 in /  1018.8 hPa WSW 13 mph /  20.9 km/h 17 mph /  27.4 km/h 56 % 0 in /  0.0 mm
12:22 61.5 °F /  16.4 °C 46.2 °F /  7.9 °C 30.1 in /  1018.8 hPa South 4 mph /  6.4 km/h 17 mph /  27.4 km/h 57 % 0 in /  0.0 mm
12:32 61.3 °F /  16.3 °C 47.3 °F /  8.5 °C 30.1 in /  1018.8 hPa WSW 6 mph /  9.7 km/h 22 mph /  35.4 km/h 60 % 0 in /  0.0 mm
12:42 60.4 °F /  15.8 °C 46.9 °F /  8.3 °C 30.1 in /  1018.8 hPa SSW 6 mph /  9.7 km/h 18 mph /  29.0 km/h 61 % 0 in /  0.0 mm
12:47 60.6 °F /  15.9 °C 47.1 °F /  8.4 °C 30.1 in /  1018.8 hPa SW 6 mph /  9.7 km/h 18 mph /  29.0 km/h 61 % 0 in /  0.0 mm
12:52 60.6 °F /  15.9 °C 47.5 °F /  8.6 °C 30.1 in /  1018.8 hPa WSW 7 mph /  11.3 km/h 18 mph /  29.0 km/h 62 % 0 in /  0.0 mm
13:02 60.1 °F /  15.6 °C 47.5 °F /  8.6 °C 30.1 in /  1018.8 hPa West 6 mph /  9.7 km/h 15 mph /  24.1 km/h 63 % 0 in /  0.0 mm
13:07 59.7 °F /  15.4 °C 48 °F /  8.9 °C 30.1 in /  1018.5 hPa West 3 mph /  4.8 km/h 15 mph /  24.1 km/h 65 % 0 in /  0.0 mm
13:12 59.7 °F /  15.4 °C 48 °F /  8.9 °C 30.1 in /  1018.8 hPa SW 10 mph /  16.1 km/h 12 mph /  19.3 km/h 65 % 0 in /  0.0 mm
13:22 59.5 °F /  15.3 °C 47.8 °F /  8.8 °C 30.1 in /  1018.8 hPa WSW 7 mph /  11.3 km/h 12 mph /  19.3 km/h 65 % 0 in /  0.0 mm
13:32 58.6 °F /  14.8 °C 48.9 °F /  9.4 °C 30.1 in /  1018.8 hPa SW 8 mph /  12.9 km/h 13 mph /  20.9 km/h 70 % 0 in /  0.0 mm
13:37 58.5 °F /  14.7 °C 49.1 °F /  9.5 °C 30.1 in /  1018.8 hPa SW 10 mph /  16.1 km/h 13 mph /  20.9 km/h 71 % 0 in /  0.0 mm
13:42 58.6 °F /  14.8 °C 48.9 °F /  9.4 °C 30.1 in /  1018.8 hPa WSW 4 mph /  6.4 km/h 12 mph /  19.3 km/h 70 % 0 in /  0.0 mm
13:52 59.4 °F /  15.2 °C 50 °F /  10.0 °C 30.1 in /  1018.5 hPa SW 5 mph /  8.0 km/h 10 mph /  16.1 km/h 71 % 0 in /  0.0 mm
14:02 60.3 °F /  15.7 °C 48.9 °F /  9.4 °C 30.1 in /  1018.5 hPa SSW 8 mph /  12.9 km/h 11 mph /  17.7 km/h 66 % 0 in /  0.0 mm
14:07 60.3 °F /  15.7 °C 49.3 °F /  9.6 °C 30.1 in /  1018.5 hPa SW 7 mph /  11.3 km/h 11 mph /  17.7 km/h 67 % 0 in /  0.0 mm
14:12 60.4 °F /  15.8 °C 49.5 °F /  9.7 °C 30.1 in /  1018.8 hPa SSW 10 mph /  16.1 km/h 13 mph /  20.9 km/h 67 % 0 in /  0.0 mm
14:17 60.6 °F /  15.9 °C 49.3 °F /  9.6 °C 30.1 in /  1018.8 hPa SSW 6 mph /  9.7 km/h 14 mph /  22.5 km/h 66 % 0 in /  0.0 mm
14:27 60.8 °F /  16.0 °C 49.5 °F /  9.7 °C 30.1 in /  1018.8 hPa SSW 6 mph /  9.7 km/h 15 mph /  24.1 km/h 66 % 0 in /  0.0 mm
14:32 61 °F /  16.1 °C 49.1 °F /  9.5 °C 30.1 in /  1018.8 hPa SW 9 mph /  14.5 km/h 15 mph /  24.1 km/h 65 % 0 in /  0.0 mm
14:37 60.6 °F /  15.9 °C 48.7 °F /  9.3 °C 30.1 in /  1018.5 hPa SSW 5 mph /  8.0 km/h 15 mph /  24.1 km/h 65 % 0 in /  0.0 mm
14:42 60.6 °F /  15.9 °C 48.7 °F /  9.3 °C 30.1 in /  1018.5 hPa SSW 6 mph /  9.7 km/h 15 mph /  24.1 km/h 65 % 0 in /  0.0 mm
14:47 60.6 °F /  15.9 °C 48.4 °F /  9.1 °C 30.1 in /  1018.5 hPa SW 5 mph /  8.0 km/h 14 mph /  22.5 km/h 64 % 0 in /  0.0 mm
14:52 60.6 °F /  15.9 °C 48.7 °F /  9.3 °C 30.1 in /  1018.5 hPa West 5 mph /  8.0 km/h 14 mph /  22.5 km/h 65 % 0 in /  0.0 mm
14:57 60.6 °F /  15.9 °C 48.7 °F /  9.3 °C 30.1 in /  1018.5 hPa WSW 5 mph /  8.0 km/h 13 mph /  20.9 km/h 65 % 0 in /  0.0 mm
15:02 60.8 °F /  16.0 °C 49.5 °F /  9.7 °C 30.1 in /  1018.5 hPa WSW 7 mph /  11.3 km/h 13 mph /  20.9 km/h 66 % 0 in /  0.0 mm
15:12 59 °F /  15.0 °C 49.6 °F /  9.8 °C 30.1 in /  1018.5 hPa West 8 mph /  12.9 km/h 16 mph /  25.7 km/h 71 % 0 in /  0.0 mm
15:17 58.3 °F /  14.6 °C 50 °F /  10.0 °C 30.1 in /  1018.5 hPa West 11 mph /  17.7 km/h 16 mph /  25.7 km/h 74 % 0 in /  0.0 mm
15:22 57.9 °F /  14.4 °C 50.4 °F /  10.2 °C 30.1 in /  1018.5 hPa WSW 3 mph /  4.8 km/h 16 mph /  25.7 km/h 76 % 0 in /  0.0 mm
15:32 58.1 °F /  14.5 °C 49.8 °F /  9.9 °C 30.1 in /  1018.5 hPa West 10 mph /  16.1 km/h 16 mph /  25.7 km/h 74 % 0 in /  0.0 mm
15:42 58.3 °F /  14.6 °C 49.6 °F /  9.8 °C 30.1 in /  1018.2 hPa SW 4 mph /  6.4 km/h 12 mph /  19.3 km/h 73 % 0 in /  0.0 mm
15:47 58.5 °F /  14.7 °C 49.5 °F /  9.7 °C 30.1 in /  1018.2 hPa WSW 6 mph /  9.7 km/h 14 mph /  22.5 km/h 72 % 0 in /  0.0 mm
15:52 58.8 °F /  14.9 °C 50.2 °F /  10.1 °C 30.1 in /  1017.8 hPa SW 8 mph /  12.9 km/h 14 mph /  22.5 km/h 73 % 0 in /  0.0 mm
16:02 58.8 °F /  14.9 °C 49.5 °F /  9.7 °C 30.1 in /  1017.8 hPa SW 12 mph /  19.3 km/h 12 mph /  19.3 km/h 71 % 0 in /  0.0 mm
16:12 59 °F /  15.0 °C 50.7 °F /  10.4 °C 30.1 in /  1017.8 hPa SW 9 mph /  14.5 km/h 13 mph /  20.9 km/h 74 % 0 in /  0.0 mm
16:17 58.8 °F /  14.9 °C 49.5 °F /  9.7 °C 30.1 in /  1017.8 hPa SW 9 mph /  14.5 km/h 13 mph /  20.9 km/h 71 % 0 in /  0.0 mm
16:22 58.8 °F /  14.9 °C 49.1 °F /  9.5 °C 30.1 in /  1017.8 hPa SW 10 mph /  16.1 km/h 13 mph /  20.9 km/h 70 % 0 in /  0.0 mm
16:32 58.8 °F /  14.9 °C 49.5 °F /  9.7 °C 30.1 in /  1017.8 hPa South 7 mph /  11.3 km/h 14 mph /  22.5 km/h 71 % 0 in /  0.0 mm
16:37 59 °F /  15.0 °C 50 °F /  10.0 °C 30.1 in /  1017.8 hPa SW 8 mph /  12.9 km/h 14 mph /  22.5 km/h 72 % 0 in /  0.0 mm
16:42 59 °F /  15.0 °C 49.6 °F /  9.8 °C 30.1 in /  1017.5 hPa SSW 5 mph /  8.0 km/h 14 mph /  22.5 km/h 71 % 0 in /  0.0 mm
16:47 59.2 °F /  15.1 °C 50.2 °F /  10.1 °C 30.1 in /  1017.5 hPa SSW 7 mph /  11.3 km/h 13 mph /  20.9 km/h 72 % 0 in /  0.0 mm
16:52 59.2 °F /  15.1 °C 50.2 °F /  10.1 °C 30.1 in /  1017.5 hPa SW 5 mph /  8.0 km/h 13 mph /  20.9 km/h 72 % 0 in /  0.0 mm
16:57 59.2 °F /  15.1 °C 49.8 °F /  9.9 °C 30.1 in /  1017.5 hPa SSW 12 mph /  19.3 km/h 13 mph /  20.9 km/h 71 % 0 in /  0.0 mm
17:02 59 °F /  15.0 °C 50 °F /  10.0 °C 30.1 in /  1017.5 hPa SSW 6 mph /  9.7 km/h 13 mph /  20.9 km/h 72 % 0 in /  0.0 mm
17:12 58.8 °F /  14.9 °C 49.8 °F /  9.9 °C 30.1 in /  1017.5 hPa SW 5 mph /  8.0 km/h 13 mph /  20.9 km/h 72 % 0 in /  0.0 mm
17:17 58.8 °F /  14.9 °C 49.5 °F /  9.7 °C 30 in /  1017.2 hPa SSW 9 mph /  14.5 km/h 13 mph /  20.9 km/h 71 % 0 in /  0.0 mm
17:22 58.6 °F /  14.8 °C 49.6 °F /  9.8 °C 30.1 in /  1017.5 hPa SSW 6 mph /  9.7 km/h 13 mph /  20.9 km/h 72 % 0 in /  0.0 mm
17:32 58.5 °F /  14.7 °C 50.2 °F /  10.1 °C 30.1 in /  1017.5 hPa SSW 3 mph /  4.8 km/h 12 mph /  19.3 km/h 74 % 0 in /  0.0 mm
17:42 57.9 °F /  14.4 °C 50.4 °F /  10.2 °C 30.1 in /  1017.5 hPa SW 4 mph /  6.4 km/h 11 mph /  17.7 km/h 76 % 0 in /  0.0 mm
17:52 57.4 °F /  14.1 °C 51.3 °F /  10.7 °C 30 in /  1017.2 hPa SW 4 mph /  6.4 km/h 11 mph /  17.7 km/h 80 % 0 in /  0.0 mm
17:57 57 °F /  13.9 °C 51.6 °F /  10.9 °C 30 in /  1017.2 hPa SW 5 mph /  8.0 km/h 11 mph /  17.7 km/h 82 % 0 in /  0.0 mm
18:02 56.7 °F /  13.7 °C 51.6 °F /  10.9 °C 30 in /  1017.2 hPa SW 2 mph /  3.2 km/h 10 mph /  16.1 km/h 83 % 0.01 in /  0.3 mm
18:12 56.3 °F /  13.5 °C 51.3 °F /  10.7 °C 30 in /  1017.2 hPa SW 4 mph /  6.4 km/h 8 mph /  12.9 km/h 83 % 0.01 in /  0.3 mm
18:17 56.1 °F /  13.4 °C 51.1 °F /  10.6 °C 30 in /  1017.2 hPa SW 3 mph /  4.8 km/h 7 mph /  11.3 km/h 83 % 0.01 in /  0.3 mm
18:22 56.1 °F /  13.4 °C 51.4 °F /  10.8 °C 30 in /  1017.2 hPa SW 6 mph /  9.7 km/h 7 mph /  11.3 km/h 84 % 0.01 in /  0.3 mm
18:32 56.1 °F /  13.4 °C 51.6 °F /  10.9 °C 30 in /  1016.8 hPa South 2 mph /  3.2 km/h 7 mph /  11.3 km/h 85 % 0.01 in /  0.3 mm
18:42 56.1 °F /  13.4 °C 52.3 °F /  11.3 °C 30 in /  1016.8 hPa SW 4 mph /  6.4 km/h 7 mph /  11.3 km/h 87 % 0.01 in /  0.3 mm
18:52 56.1 °F /  13.4 °C 52.3 °F /  11.3 °C 30 in /  1016.8 hPa SSW 3 mph /  4.8 km/h 6 mph /  9.7 km/h 87 % 0.01 in /  0.3 mm
19:02 55.9 °F /  13.3 °C 51.8 °F /  11.0 °C 30 in /  1016.5 hPa South 1 mph /  1.6 km/h 6 mph /  9.7 km/h 86 % 0.01 in /  0.3 mm
19:12 55.8 °F /  13.2 °C 51.6 °F /  10.9 °C 30 in /  1016.5 hPa Calm   4 mph /  6.4 km/h 86 % 0.01 in /  0.3 mm
19:17 55.8 °F /  13.2 °C 51.6 °F /  10.9 °C 30 in /  1016.5 hPa Calm   3 mph /  4.8 km/h 86 % 0.01 in /  0.3 mm
19:22 55.8 °F /  13.2 °C 51.6 °F /  10.9 °C 30 in /  1016.5 hPa Calm   2 mph /  3.2 km/h 86 % 0.01 in /  0.3 mm
19:32 55.6 °F /  13.1 °C 51.8 °F /  11.0 °C 30 in /  1016.5 hPa Calm   1 mph /  1.6 km/h 87 % 0.01 in /  0.3 mm
19:42 55.4 °F /  13.0 °C 51.3 °F /  10.7 °C 30 in /  1016.1 hPa Calm   1 mph /  1.6 km/h 86 % 0.01 in /  0.3 mm
19:52 55.4 °F /  13.0 °C 51.6 °F /  10.9 °C 30 in /  1016.1 hPa Calm     87 % 0.01 in /  0.3 mm
19:57 55.2 °F /  12.9 °C 51.1 °F /  10.6 °C 30 in /  1016.1 hPa Calm     86 % 0 in /  0.0 mm
20:02 55.2 °F /  12.9 °C 51.1 °F /  10.6 °C 30 in /  1016.1 hPa Calm     86 % 0 in /  0.0 mm
20:12 55 °F /  12.8 °C 50.9 °F /  10.5 °C 30 in /  1016.1 hPa Calm     86 % 0 in /  0.0 mm
20:17 54.9 °F /  12.7 °C 51.1 °F /  10.6 °C 30 in /  1016.1 hPa Calm     87 % 0 in /  0.0 mm
20:22 54.9 °F /  12.7 °C 51.1 °F /  10.6 °C 30 in /  1016.1 hPa Calm   1 mph /  1.6 km/h 87 % 0 in /  0.0 mm
20:32 54.7 °F /  12.6 °C 50.9 °F /  10.5 °C 30 in /  1016.1 hPa Calm   1 mph /  1.6 km/h 87 % 0 in /  0.0 mm
20:42 54.7 °F /  12.6 °C 50.9 °F /  10.5 °C 30 in /  1016.1 hPa SW 1 mph /  1.6 km/h   87 % 0 in /  0.0 mm
20:47 54.5 °F /  12.5 °C 51.1 °F /  10.6 °C 30 in /  1016.1 hPa Calm   3 mph /  4.8 km/h 88 % 0 in /  0.0 mm
20:52 54.5 °F /  12.5 °C 51.1 °F /  10.6 °C 30 in /  1016.1 hPa Calm   3 mph /  4.8 km/h 88 % 0 in /  0.0 mm
20:57 54.3 °F /  12.4 °C 50.9 °F /  10.5 °C 30 in /  1016.1 hPa SSW 1 mph /  1.6 km/h 3 mph /  4.8 km/h 88 % 0 in /  0.0 mm
21:02 54.1 °F /  12.3 °C 50.9 °F /  10.5 °C 30 in /  1016.1 hPa Calm   3 mph /  4.8 km/h 89 % 0 in /  0.0 mm
21:12 54 °F /  12.2 °C 51.1 °F /  10.6 °C 30 in /  1016.1 hPa Calm   2 mph /  3.2 km/h 90 % 0 in /  0.0 mm
21:17 53.8 °F /  12.1 °C 50.9 °F /  10.5 °C 30 in /  1016.1 hPa Calm   1 mph /  1.6 km/h 90 % 0 in /  0.0 mm
21:22 53.8 °F /  12.1 °C 51.3 °F /  10.7 °C 30 in /  1016.1 hPa Calm   1 mph /  1.6 km/h 91 % 0.01 in /  0.3 mm
21:32 53.6 °F /  12.0 °C 51.1 °F /  10.6 °C 30 in /  1016.5 hPa Calm   1 mph /  1.6 km/h 91 % 0.01 in /  0.3 mm
21:42 53.4 °F /  11.9 °C 51.1 °F /  10.6 °C 30 in /  1016.1 hPa Calm   2 mph /  3.2 km/h 92 % 0.02 in /  0.5 mm
21:47 53.4 °F /  11.9 °C 51.4 °F /  10.8 °C 30 in /  1016.1 hPa Calm   2 mph /  3.2 km/h 93 % 0.02 in /  0.5 mm
21:52 53.2 °F /  11.8 °C 51.3 °F /  10.7 °C 30 in /  1016.1 hPa Calm   2 mph /  3.2 km/h 93 % 0.02 in /  0.5 mm
21:57 53.2 °F /  11.8 °C 51.3 °F /  10.7 °C 30 in /  1016.1 hPa Calm   2 mph /  3.2 km/h 93 % 0.02 in /  0.5 mm
22:02 53.2 °F /  11.8 °C 51.3 °F /  10.7 °C 30 in /  1016.1 hPa Calm   2 mph /  3.2 km/h 93 % 0.02 in /  0.5 mm
22:12 53.1 °F /  11.7 °C 51.1 °F /  10.6 °C 30 in /  1016.1 hPa Calm   2 mph /  3.2 km/h 93 % 0.02 in /  0.5 mm
22:17 52.9 °F /  11.6 °C 51.3 °F /  10.7 °C 30 in /  1015.8 hPa Calm   1 mph /  1.6 km/h 94 % 0.02 in /  0.5 mm
22:22 52.9 °F /  11.6 °C 51.3 °F /  10.7 °C 30 in /  1015.8 hPa Calm   1 mph /  1.6 km/h 94 % 0.02 in /  0.5 mm
22:32 52.9 °F /  11.6 °C 51.3 °F /  10.7 °C 30 in /  1015.8 hPa Calm   1 mph /  1.6 km/h 94 % 0.02 in /  0.5 mm
22:37 52.9 °F /  11.6 °C 51.3 °F /  10.7 °C 30 in /  1015.8 hPa SE 1 mph /  1.6 km/h 2 mph /  3.2 km/h 94 % 0.02 in /  0.5 mm
22:42 52.9 °F /  11.6 °C 51.3 °F /  10.7 °C 30 in /  1015.8 hPa Calm   2 mph /  3.2 km/h 94 % 0.02 in /  0.5 mm
22:52 52.7 °F /  11.5 °C 51.1 °F /  10.6 °C 30 in /  1015.8 hPa SSW 2 mph /  3.2 km/h 3 mph /  4.8 km/h 94 % 0.01 in /  0.3 mm
22:57 52.7 °F /  11.5 °C 51.1 °F /  10.6 °C 30 in /  1015.8 hPa SSW 1 mph /  1.6 km/h 5 mph /  8.0 km/h 94 % 0.02 in /  0.5 mm
23:02 52.5 °F /  11.4 °C 50.9 °F /  10.5 °C 30 in /  1015.8 hPa SSW 2 mph /  3.2 km/h 5 mph /  8.0 km/h 94 % 0.02 in /  0.5 mm
23:12 52.5 °F /  11.4 °C 51.1 °F /  10.6 °C 30 in /  1015.8 hPa SSW 2 mph /  3.2 km/h 5 mph /  8.0 km/h 95 % 0.04 in /  1.0 mm
23:17 52.5 °F /  11.4 °C 51.1 °F /  10.6 °C 30 in /  1015.8 hPa South 3 mph /  4.8 km/h 4 mph /  6.4 km/h 95 % 0.06 in /  1.5 mm
23:22 52.5 °F /  11.4 °C 51.1 °F /  10.6 °C 30 in /  1015.8 hPa SSW 3 mph /  4.8 km/h 4 mph /  6.4 km/h 95 % 0.06 in /  1.5 mm
23:32 52.3 °F /  11.3 °C 50.9 °F /  10.5 °C 30 in /  1015.8 hPa SW 2 mph /  3.2 km/h 6 mph /  9.7 km/h 95 % 0.07 in /  1.8 mm
23:42 52.3 °F /  11.3 °C 50.9 °F /  10.5 °C 30 in /  1015.8 hPa South 2 mph /  3.2 km/h 6 mph /  9.7 km/h 95 % 0.08 in /  2.0 mm
23:47 52.3 °F /  11.3 °C 50.9 °F /  10.5 °C 30 in /  1015.8 hPa SSW 4 mph /  6.4 km/h 5 mph /  8.0 km/h 95 % 0.09 in /  2.3 mm
23:52 52.3 °F /  11.3 °C 50.9 °F /  10.5 °C 30 in /  1015.8 hPa SSW 2 mph /  3.2 km/h 5 mph /  8.0 km/h 95 % 0.09 in /  2.3 mm
23:57 52.2 °F /  11.2 °C 50.7 °F /  10.4 °C 30 in /  1015.5 hPa SSW 2 mph /  3.2 km/h 6 mph /  9.7 km/h 95 % 0.09 in /  2.3 mm
Meteo18
Compliments of Weather Underground - 4 mb

Script developed by  Jim McMurry - jmcmurry@mwt.net Adapted for the template by  Wim van der Kuil - Leuven-Template.eu

You find our weather info also at:

European Weather Network

Weather Underground

Equipment we use:

Weather-station
Davis Vue

Weather-program
Meteohub

Weather-server
Raspberry PI 2 B+

Provider
1 and 1

Davis Vue

Meteohub

Raspberry PI 2 B+

1 and 1